Time;durP1;ratioP1;P1;durP2;ratioP2;P2;SDS_P1;SDS_P2;PMS_P1;PMS_P2;Temp;Humidity;BMP_temperature;BMP_pressure;BME280_temperature;BME280_humidity;BME280_pressure;Samples;Min_cycle;Max_cycle;Signal;HPM_P1;HPM_P2
2020/12/19 00:00:49;;;;;;;15.47;10.63;;;5.00;96.90;;;;;;4834697;29;20037;-79
2020/12/19 00:03:16;;;;;;;15.00;10.37;;;5.00;96.90;;;;;;4831324;29;20518;-78
2020/12/19 00:05:43;;;;;;;16.83;11.20;;;5.00;96.90;;;;;;4885259;29;20029;-79
2020/12/19 00:08:09;;;;;;;19.77;13.23;;;5.00;96.90;;;;;;4855757;29;20044;-77
2020/12/19 00:10:36;;;;;;;19.67;12.80;;;5.00;96.90;;;;;;4855816;29;20055;-78
2020/12/19 00:13:02;;;;;;;23.90;13.70;;;5.00;96.90;;;;;;4860800;29;20369;-78
2020/12/19 00:15:29;;;;;;;19.63;13.83;;;5.00;96.90;;;;;;4862139;29;20052;-79
2020/12/19 00:17:55;;;;;;;15.60;10.95;;;5.00;97.00;;;;;;4871736;29;20051;-79
2020/12/19 00:20:22;;;;;;;21.30;14.75;;;4.90;96.90;;;;;;4848341;29;20399;-79
2020/12/19 00:22:49;;;;;;;18.87;12.30;;;4.90;97.10;;;;;;4861615;29;20056;-79
2020/12/19 00:25:15;;;;;;;21.17;13.85;;;4.90;97.00;;;;;;4883451;29;20056;-78
2020/12/19 00:27:43;;;;;;;23.80;16.20;;;4.90;97.00;;;;;;4854950;29;20043;-78
2020/12/19 00:30:10;;;;;;;20.33;13.07;;;4.90;97.00;;;;;;4882821;29;20045;-78
2020/12/19 00:32:40;;;;;;;27.13;18.02;;;4.90;97.00;;;;;;4858566;29;20040;-77
2020/12/19 00:35:08;;;;;;;19.37;12.87;;;4.90;97.10;;;;;;4877813;29;20052;-77
2020/12/19 00:37:40;;;;;;;15.93;10.73;;;4.90;97.10;;;;;;4841608;29;20059;-77
2020/12/19 00:40:07;;;;;;;13.47;8.87;;;4.90;97.00;;;;;;4862663;29;20028;-78
2020/12/19 00:42:38;;;;;;;13.83;9.20;;;4.90;97.00;;;;;;4889211;29;20045;-79
2020/12/19 00:45:07;;;;;;;16.53;11.20;;;4.80;97.00;;;;;;4850303;29;20562;-77
2020/12/19 00:47:35;;;;;;;18.90;11.82;;;4.80;97.00;;;;;;4885182;29;20039;-78
2020/12/19 00:50:05;;;;;;;28.93;16.90;;;4.80;97.10;;;;;;4875994;29;20542;-78
2020/12/19 00:52:32;;;;;;;30.63;17.77;;;4.80;97.10;;;;;;4870265;29;20471;-78
2020/12/19 00:54:59;;;;;;;21.53;15.17;;;4.80;97.10;;;;;;4889690;29;20040;-78
2020/12/19 00:57:32;;;;;;;26.83;16.57;;;4.80;97.10;;;;;;4864571;29;20047;-78
2020/12/19 01:00:00;;;;;;;28.13;17.67;;;4.80;97.20;;;;;;4857324;29;20403;-78
2020/12/19 01:02:27;;;;;;;24.80;16.00;;;4.90;97.20;;;;;;4876090;29;20051;-78
2020/12/19 01:04:54;;;;;;;29.83;18.80;;;4.80;97.10;;;;;;4849809;29;20052;-78
2020/12/19 01:07:21;;;;;;;25.87;16.67;;;4.80;97.20;;;;;;4869934;29;20037;-78
2020/12/19 01:09:47;;;;;;;24.70;15.80;;;4.90;97.20;;;;;;4849429;29;20048;-78
2020/12/19 01:12:14;;;;;;;29.57;19.23;;;4.90;97.20;;;;;;4843845;29;20041;-77
2020/12/19 01:14:41;;;;;;;33.30;20.37;;;4.90;97.20;;;;;;4860465;29;20499;-78
2020/12/19 01:17:08;;;;;;;33.97;19.57;;;4.90;97.20;;;;;;4874636;29;20048;-78
2020/12/19 01:19:34;;;;;;;35.70;21.77;;;4.90;97.30;;;;;;4863269;29;20033;-78
2020/12/19 01:22:00;;;;;;;38.90;24.50;;;4.90;97.30;;;;;;4861486;29;20138;-78
2020/12/19 01:24:27;;;;;;;33.07;20.03;;;5.00;97.40;;;;;;4848258;29;20523;-77
2020/12/19 01:26:54;;;;;;;39.22;20.38;;;5.00;97.40;;;;;;4864269;29;20052;-78
2020/12/19 01:29:21;;;;;;;33.00;20.10;;;5.00;97.40;;;;;;4874455;29;20064;-78
2020/12/19 01:31:47;;;;;;;34.10;20.63;;;5.00;97.40;;;;;;4863856;29;20075;-79
2020/12/19 01:34:14;;;;;;;36.23;20.47;;;5.00;97.40;;;;;;4860882;29;20045;-78
2020/12/19 01:36:41;;;;;;;38.43;22.27;;;5.10;97.40;;;;;;4872818;29;20604;-78
2020/12/19 01:39:10;;;;;;;42.60;23.93;;;5.00;97.70;;;;;;4878731;29;20652;-78
2020/12/19 01:41:36;;;;;;;31.20;19.85;;;5.10;97.50;;;;;;4885901;29;20056;-78
2020/12/19 01:44:03;;;;;;;31.70;20.03;;;5.10;97.50;;;;;;4841765;29;20036;-79
2020/12/19 01:47:02;;;;;;;36.27;21.83;;;5.10;97.50;;;;;;4867470;29;20048;-78
2020/12/19 01:49:30;;;;;;;31.83;20.17;;;5.10;97.60;;;;;;4860564;29;20044;-78
2020/12/19 01:52:00;;;;;;;32.75;19.67;;;5.10;97.50;;;;;;4842544;29;20040;-78
2020/12/19 01:54:28;;;;;;;34.72;20.58;;;5.10;97.50;;;;;;4868212;29;20036;-78
2020/12/19 01:56:57;;;;;;;33.95;20.25;;;5.20;97.50;;;;;;4876360;29;20028;-78
2020/12/19 01:59:26;;;;;;;36.27;20.77;;;5.20;97.60;;;;;;4840240;29;20040;-78
2020/12/19 02:01:55;;;;;;;35.30;21.37;;;5.20;97.60;;;;;;4854302;29;20061;-78
2020/12/19 02:04:24;;;;;;;33.93;20.97;;;5.20;97.60;;;;;;4876221;29;20036;-78
2020/12/19 02:06:55;;;;;;;32.00;20.58;;;5.20;97.60;;;;;;4884540;29;20353;-78
2020/12/19 02:09:25;;;;;;;26.63;17.48;;;5.30;97.60;;;;;;4873207;29;20376;-78
2020/12/19 02:11:51;;;;;;;33.10;19.60;;;5.20;97.50;;;;;;4869747;29;20503;-79
2020/12/19 02:14:18;;;;;;;30.77;18.90;;;5.30;97.50;;;;;;4840888;29;20044;-82
2020/12/19 02:16:58;;;;;;;38.53;23.42;;;5.20;97.50;;;;;;4849536;29;20033;-78
2020/12/19 02:19:26;;;;;;;32.60;21.13;;;5.20;97.60;;;;;;4877761;29;20056;-78
2020/12/19 02:21:54;;;;;;;32.75;20.02;;;5.30;97.90;;;;;;4882597;29;20063;-78
2020/12/19 02:24:21;;;;;;;33.20;19.15;;;5.30;97.60;;;;;;4836607;29;20040;-78
2020/12/19 02:26:49;;;;;;;29.80;16.77;;;5.30;97.50;;;;;;4870755;29;20484;-78
2020/12/19 02:29:16;;;;;;;32.58;18.55;;;5.20;97.50;;;;;;4884681;29;20574;-79
2020/12/19 02:31:44;;;;;;;36.85;22.48;;;5.20;97.50;;;;;;4858377;29;20049;-78
2020/12/19 02:34:10;;;;;;;33.58;20.27;;;5.20;97.60;;;;;;4853320;29;20047;-78
2020/12/19 02:36:39;;;;;;;36.80;22.80;;;5.20;97.60;;;;;;4871445;29;20476;-78
2020/12/19 02:39:07;;;;;;;34.17;19.47;;;5.20;97.60;;;;;;4880636;29;20054;-78
2020/12/19 02:41:35;;;;;;;33.10;19.13;;;5.20;97.60;;;;;;4870205;29;20044;-78
2020/12/19 02:44:02;;;;;;;28.33;17.25;;;5.20;97.60;;;;;;4888669;29;20515;-78
2020/12/19 02:46:28;;;;;;;26.27;16.25;;;5.20;97.60;;;;;;4856542;29;20048;-78
2020/12/19 02:48:55;;;;;;;34.38;19.30;;;5.20;97.60;;;;;;4866442;29;20055;-78
2020/12/19 02:51:21;;;;;;;33.33;19.70;;;5.20;97.60;;;;;;4865945;29;20045;-77
2020/12/19 02:53:48;;;;;;;35.38;20.80;;;5.20;97.60;;;;;;4852336;29;20051;-78
2020/12/19 02:56:14;;;;;;;32.70;18.87;;;5.20;97.60;;;;;;4852924;29;20065;-78
2020/12/19 02:58:41;;;;;;;31.30;19.48;;;5.20;97.60;;;;;;4856340;29;20519;-78
2020/12/19 03:01:07;;;;;;;33.73;20.13;;;5.20;97.60;;;;;;4836680;29;20495;-78
2020/12/19 03:03:34;;;;;;;38.57;21.90;;;5.20;97.60;;;;;;4883638;29;20035;-78
2020/12/19 03:06:01;;;;;;;29.80;18.35;;;5.20;97.70;;;;;;4878127;29;20037;-78
2020/12/19 03:08:28;;;;;;;33.55;21.05;;;5.20;97.70;;;;;;4870397;29;20051;-78
2020/12/19 03:10:54;;;;;;;30.65;19.15;;;5.20;97.70;;;;;;4853721;29;20471;-78
2020/12/19 03:13:21;;;;;;;35.27;20.33;;;5.20;97.90;;;;;;4856150;29;20048;-78
2020/12/19 03:15:47;;;;;;;34.00;19.37;;;5.20;97.70;;;;;;4886845;29;20036;-78
2020/12/19 03:18:14;;;;;;;24.90;16.13;;;5.30;97.70;;;;;;4854798;29;20051;-78
2020/12/19 03:20:40;;;;;;;31.00;18.00;;;5.20;97.60;;;;;;4854276;29;20051;-78
2020/12/19 03:23:07;;;;;;;24.63;15.73;;;5.20;97.70;;;;;;4854863;29;20041;-78
2020/12/19 03:25:33;;;;;;;36.40;20.37;;;5.20;97.60;;;;;;4854491;29;20400;-77
2020/12/19 03:28:00;;;;;;;34.20;20.10;;;5.20;97.90;;;;;;4852076;29;20056;-86
2020/12/19 03:30:26;;;;;;;35.50;19.67;;;5.20;97.70;;;;;;4833941;29;20051;-86
2020/12/19 03:32:54;;;;;;;27.98;17.92;;;5.30;97.70;;;;;;4884029;29;20052;-86
2020/12/19 03:35:22;;;;;;;29.67;17.10;;;5.20;97.60;;;;;;4894129;29;20044;-86
2020/12/19 03:37:49;;;;;;;25.97;16.03;;;5.20;97.60;;;;;;4894556;29;20033;-85
2020/12/19 03:40:15;;;;;;;29.77;16.97;;;5.20;97.60;;;;;;4883876;29;20492;-86
2020/12/19 03:42:42;;;;;;;24.38;15.05;;;5.20;97.60;;;;;;4892908;29;20040;-86
2020/12/19 03:45:09;;;;;;;25.23;15.15;;;5.10;97.60;;;;;;4849728;29;20044;-86
2020/12/19 03:47:35;;;;;;;24.02;15.25;;;5.10;97.60;;;;;;4910456;29;20079;-86
2020/12/19 03:50:04;;;;;;;37.92;21.55;;;5.10;97.60;;;;;;4849110;29;20049;-86
2020/12/19 03:52:31;;;;;;;37.80;22.47;;;5.10;97.70;;;;;;4910708;29;20041;-86
2020/12/19 03:54:57;;;;;;;27.67;17.65;;;5.20;97.80;;;;;;4891526;29;20063;-86
2020/12/19 03:57:24;;;;;;;37.53;21.33;;;5.20;97.70;;;;;;4848750;29;20048;-86
2020/12/19 03:59:50;;;;;;;34.00;19.53;;;5.20;97.70;;;;;;4882785;29;20044;-86
2020/12/19 04:02:17;;;;;;;37.42;21.45;;;5.20;97.70;;;;;;4849389;29;20063;-86
2020/12/19 04:04:43;;;;;;;34.70;20.17;;;5.20;97.90;;;;;;4843048;29;20037;-86
2020/12/19 04:07:11;;;;;;;34.53;22.13;;;5.20;97.90;;;;;;4893915;29;20065;-86
2020/12/19 04:09:38;;;;;;;33.95;20.17;;;5.20;97.70;;;;;;4895900;29;20043;-86
2020/12/19 04:12:05;;;;;;;28.95;17.30;;;5.20;97.70;;;;;;4879597;29;20055;-85
2020/12/19 04:14:37;;;;;;;36.27;19.93;;;5.10;97.60;;;;;;4866474;29;20032;-85
2020/12/19 04:17:08;;;;;;;30.10;17.45;;;5.10;97.70;;;;;;4879230;29;20028;-85
2020/12/19 04:19:37;;;;;;;33.28;19.85;;;5.10;97.60;;;;;;4871428;29;20487;-85
2020/12/19 04:22:06;;;;;;;33.30;19.20;;;5.10;97.70;;;;;;4880179;29;20048;-85
2020/12/19 04:24:33;;;;;;;39.15;20.90;;;5.10;97.70;;;;;;4879852;29;20531;-85
2020/12/19 04:27:00;;;;;;;34.58;20.05;;;5.00;97.80;;;;;;4895266;29;20049;-85
2020/12/19 04:29:28;;;;;;;34.45;19.63;;;5.10;97.80;;;;;;4868970;29;20040;-85
2020/12/19 04:31:55;;;;;;;35.80;20.17;;;5.10;97.80;;;;;;4907010;29;20408;-86
2020/12/19 04:34:23;;;;;;;33.13;19.57;;;5.10;97.80;;;;;;4892645;29;20037;-85
2020/12/19 04:36:50;;;;;;;34.87;19.40;;;5.10;97.80;;;;;;4881509;29;20689;-85
2020/12/19 04:39:17;;;;;;;30.30;17.37;;;5.10;97.70;;;;;;4878358;29;20064;-85
2020/12/19 04:41:45;;;;;;;30.45;18.23;;;5.00;97.70;;;;;;4881115;29;20044;-85
2020/12/19 04:44:12;;;;;;;28.17;17.47;;;5.00;97.70;;;;;;4863974;29;20047;-85
2020/12/19 04:46:43;;;;;;;25.00;15.70;;;5.00;97.70;;;;;;4897612;29;20404;-85
2020/12/19 04:49:10;;;;;;;35.73;19.50;;;5.00;97.70;;;;;;4893364;29;20055;-85
2020/12/19 04:51:37;;;;;;;31.70;18.83;;;5.00;97.70;;;;;;4871432;29;20044;-85
2020/12/19 04:54:05;;;;;;;30.15;17.55;;;5.00;97.70;;;;;;4865792;29;20770;-85
2020/12/19 04:56:32;;;;;;;29.90;18.33;;;5.00;98.00;;;;;;4861457;29;20044;-85
2020/12/19 04:59:03;;;;;;;26.27;15.00;;;5.00;97.70;;;;;;4875783;29;20550;-77
2020/12/19 05:01:30;;;;;;;27.93;17.33;;;5.00;97.70;;;;;;4845464;29;20057;-77
2020/12/19 05:03:56;;;;;;;29.20;16.25;;;5.00;97.70;;;;;;4842903;29;20053;-77
2020/12/19 05:06:28;;;;;;;44.42;23.65;;;5.00;97.70;;;;;;4843445;29;20045;-77
2020/12/19 05:08:58;;;;;;;36.83;19.83;;;5.00;97.80;;;;;;4853079;29;20032;-77
2020/12/19 05:11:25;;;;;;;39.57;22.17;;;5.00;97.80;;;;;;4848214;29;20055;-78
2020/12/19 05:13:52;;;;;;;34.97;20.00;;;5.00;97.90;;;;;;4894451;29;20043;-77
2020/12/19 05:16:19;;;;;;;26.75;16.83;;;5.00;97.80;;;;;;4877037;29;20044;-76
2020/12/19 05:18:46;;;;;;;35.80;20.30;;;5.00;97.70;;;;;;4891267;29;20040;-77
2020/12/19 05:21:14;;;;;;;33.78;18.85;;;5.00;97.70;;;;;;4883745;29;20033;-77
2020/12/19 05:23:44;;;;;;;35.07;19.53;;;5.00;97.80;;;;;;4876525;29;20048;-77
2020/12/19 05:26:12;;;;;;;38.00;20.87;;;5.00;97.80;;;;;;4852380;29;20052;-77
2020/12/19 05:28:43;;;;;;;36.93;20.40;;;5.00;97.80;;;;;;4899815;29;20052;-77
2020/12/19 05:31:11;;;;;;;39.43;22.23;;;5.00;97.70;;;;;;4885020;29;20408;-77
2020/12/19 05:33:42;;;;;;;32.77;18.73;;;4.90;97.70;;;;;;4853936;29;20056;-77
2020/12/19 05:36:20;;;;;;;36.97;22.23;;;4.90;97.70;;;;;;4866808;29;20036;-77
2020/12/19 05:38:47;;;;;;;31.33;17.77;;;4.90;97.70;;;;;;4851677;29;20040;-77
2020/12/19 05:41:14;;;;;;;25.63;15.63;;;4.90;97.70;;;;;;4881430;29;20041;-77
2020/12/19 05:43:51;;;;;;;30.67;18.07;;;4.90;97.70;;;;;;4892623;29;20055;-77
2020/12/19 05:46:30;;;;;;;29.10;17.33;;;4.90;97.70;;;;;;4880944;29;20056;-77
2020/12/19 05:48:58;;;;;;;26.07;16.30;;;4.80;97.70;;;;;;4863902;29;20041;-76
2020/12/19 05:51:30;;;;;;;35.37;19.27;;;4.80;97.70;;;;;;4853225;29;20130;-76
2020/12/19 05:54:07;;;;;;;32.30;18.67;;;4.80;97.80;;;;;;4864795;29;20032;-77
2020/12/19 05:56:38;;;;;;;41.97;22.63;;;4.80;97.80;;;;;;4894941;29;20067;-77
2020/12/19 05:59:10;;;;;;;36.10;20.63;;;4.90;97.80;;;;;;4894679;29;20063;-77
2020/12/19 06:01:46;;;;;;;42.73;23.27;;;4.90;97.80;;;;;;4872706;29;20063;-77
2020/12/19 06:04:15;;;;;;;40.90;22.00;;;4.90;97.80;;;;;;4893943;29;20044;-76
2020/12/19 06:06:46;;;;;;;34.17;20.80;;;4.90;97.80;;;;;;4881014;29;20059;-77
2020/12/19 06:09:13;;;;;;;38.10;23.23;;;4.90;97.80;;;;;;4849026;29;20044;-77
2020/12/19 06:11:48;;;;;;;39.03;21.50;;;4.80;97.80;;;;;;4866514;29;20428;-77
2020/12/19 06:14:20;;;;;;;40.43;21.97;;;4.90;97.90;;;;;;4867287;29;20039;-77
2020/12/19 06:16:52;;;;;;;33.88;20.45;;;4.90;97.90;;;;;;4892823;29;20040;-77
2020/12/19 06:19:20;;;;;;;36.55;20.80;;;4.90;97.90;;;;;;4877713;29;20045;-76
2020/12/19 06:21:54;;;;;;;45.47;23.80;;;4.90;97.90;;;;;;4908281;29;20779;-77
2020/12/19 06:24:41;;;;;;;38.97;21.43;;;4.90;97.90;;;;;;4866146;29;20056;-77
2020/12/19 06:27:34;;;;;;;29.93;16.87;;;4.90;97.90;;;;;;4883001;29;20037;-77
2020/12/19 06:30:02;;;;;;;29.67;17.27;;;4.90;97.80;;;;;;4857098;29;20047;-77
2020/12/19 06:32:30;;;;;;;44.17;22.40;;;4.90;98.10;;;;;;4873516;29;20048;-77
2020/12/19 06:35:17;;;;;;;36.10;21.30;;;4.90;97.90;;;;;;4894899;29;20032;-77
2020/12/19 06:37:43;;;;;;;40.10;22.20;;;4.90;97.90;;;;;;4865340;29;20525;-77
2020/12/19 06:40:13;;;;;;;32.53;19.43;;;4.90;97.90;;;;;;4882265;29;20512;-77
2020/12/19 06:42:42;;;;;;;37.00;21.20;;;4.90;97.90;;;;;;4877365;29;20036;-77
2020/12/19 06:45:29;;;;;;;31.05;17.92;;;4.90;97.90;;;;;;4877325;29;20051;-77
2020/12/19 06:47:57;;;;;;;40.13;22.38;;;4.90;97.90;;;;;;4894988;29;20044;-77
2020/12/19 06:50:24;;;;;;;41.73;22.23;;;4.90;97.90;;;;;;4891345;29;20584;-77
2020/12/19 06:52:58;;;;;;;33.70;19.03;;;4.90;97.90;;;;;;4908378;29;20040;-77
2020/12/19 06:55:27;;;;;;;34.73;20.70;;;4.90;98.10;;;;;;4890841;29;20044;-77
2020/12/19 06:57:56;;;;;;;38.17;21.88;;;4.90;98.20;;;;;;4867910;29;20036;-77
2020/12/19 07:00:25;;;;;;;32.47;18.77;;;4.90;97.90;;;;;;4892455;29;20040;-77
2020/12/19 07:02:56;;;;;;;35.70;21.10;;;4.90;97.90;;;;;;4907451;29;20048;-77
2020/12/19 07:05:23;;;;;;;33.37;19.17;;;4.90;97.90;;;;;;4867398;29;21406;-77
2020/12/19 07:07:52;;;;;;;32.50;19.13;;;4.80;97.90;;;;;;4882069;29;20037;-76
2020/12/19 07:10:35;;;;;;;30.15;18.70;;;4.90;98.00;;;;;;4890825;29;20237;-77
2020/12/19 07:13:02;;;;;;;36.23;22.63;;;4.90;97.90;;;;;;4850792;29;20059;-77
2020/12/19 07:15:51;;;;;;;51.83;27.47;;;4.90;97.90;;;;;;4868032;29;20040;-77
2020/12/19 07:18:29;;;;;;;41.78;23.83;;;4.90;98.00;;;;;;4848180;29;20815;-78
2020/12/19 07:21:10;;;;;;;44.47;24.83;;;4.90;98.00;;;;;;4872197;29;20059;-76
2020/12/19 07:23:40;;;;;;;34.00;19.73;;;4.90;98.00;;;;;;4883111;29;20041;-76
2020/12/19 07:26:07;;;;;;;43.17;24.43;;;4.90;97.90;;;;;;4880268;29;20036;-76
2020/12/19 07:28:34;;;;;;;39.20;22.90;;;4.90;98.00;;;;;;4883249;29;20051;-75
2020/12/19 07:31:01;;;;;;;35.45;20.55;;;4.90;97.90;;;;;;4865546;29;20051;-76
2020/12/19 07:33:27;;;;;;;28.80;17.40;;;4.90;97.90;;;;;;4862325;29;20040;-76
2020/12/19 07:35:56;;;;;;;22.93;13.93;;;4.90;97.90;;;;;;4888923;29;20040;-78
2020/12/19 07:38:23;;;;;;;37.70;22.07;;;4.90;97.90;;;;;;4869371;29;20041;-78
2020/12/19 07:40:56;;;;;;;25.90;16.90;;;4.80;97.90;;;;;;4864223;29;20049;-77
2020/12/19 07:43:23;;;;;;;26.90;15.77;;;4.80;97.90;;;;;;4893172;29;20056;-78
2020/12/19 07:45:56;;;;;;;35.30;20.30;;;4.80;97.90;;;;;;4897470;29;20048;-78
2020/12/19 07:48:23;;;;;;;38.42;22.02;;;4.80;97.90;;;;;;4876397;29;20041;-78
2020/12/19 07:50:50;;;;;;;38.53;22.40;;;4.80;97.90;;;;;;4885141;29;20726;-78
2020/12/19 07:53:16;;;;;;;31.40;19.63;;;4.80;98.00;;;;;;4872903;29;20051;-78
2020/12/19 07:55:49;;;;;;;22.93;14.83;;;4.80;98.00;;;;;;4852872;29;20056;-78
2020/12/19 07:58:16;;;;;;;23.23;15.40;;;4.90;98.00;;;;;;4879496;29;20060;-78
2020/12/19 08:00:43;;;;;;;24.00;14.87;;;4.90;97.90;;;;;;4864407;29;20044;-78
2020/12/19 08:03:10;;;;;;;22.83;15.35;;;4.90;98.20;;;;;;4875708;29;20061;-77
2020/12/19 08:05:37;;;;;;;31.37;17.93;;;4.90;98.00;;;;;;4876338;29;20071;-78
2020/12/19 08:08:04;;;;;;;25.07;16.23;;;4.90;97.90;;;;;;4871322;29;20051;-78
2020/12/19 08:10:30;;;;;;;27.83;15.70;;;4.90;97.90;;;;;;4879460;29;20037;-78
2020/12/19 08:12:56;;;;;;;38.95;22.35;;;4.90;97.90;;;;;;4881849;29;20048;-78
2020/12/19 08:15:23;;;;;;;30.20;19.02;;;4.90;97.90;;;;;;4880347;29;20060;-78
2020/12/19 08:17:51;;;;;;;30.27;17.27;;;5.00;98.00;;;;;;4882193;29;20427;-79
2020/12/19 08:20:39;;;;;;;26.08;16.88;;;5.00;97.90;;;;;;4879647;29;20036;-76
2020/12/19 08:23:07;;;;;;;24.70;14.95;;;5.00;97.90;;;;;;4896426;29;20049;-75
2020/12/19 08:25:35;;;;;;;25.13;15.18;;;5.00;97.90;;;;;;4890133;29;20526;-76
2020/12/19 08:28:01;;;;;;;23.55;15.18;;;5.00;97.90;;;;;;4889528;29;20044;-76
2020/12/19 08:30:30;;;;;;;23.30;14.40;;;5.10;97.90;;;;;;4881147;29;20516;-75
2020/12/19 08:33:07;;;;;;;22.48;15.68;;;5.10;97.90;;;;;;4852295;29;20059;-76
2020/12/19 08:35:35;;;;;;;25.60;16.70;;;5.20;97.90;;;;;;4873134;29;20483;-82
2020/12/19 08:38:09;;;;;;;27.50;17.00;;;5.20;97.90;;;;;;4871864;29;20041;-82
2020/12/19 08:40:43;;;;;;;24.75;16.08;;;5.20;97.90;;;;;;4879769;29;20036;-82
2020/12/19 08:43:12;;;;;;;26.03;15.03;;;5.30;98.00;;;;;;4865752;29;20044;-82
2020/12/19 08:45:43;;;;;;;28.25;18.42;;;5.30;97.90;;;;;;4880127;29;20048;-82
2020/12/19 08:48:20;;;;;;;23.80;16.25;;;5.40;98.00;;;;;;4879699;29;20582;-82
2020/12/19 08:50:48;;;;;;;21.70;14.32;;;5.50;98.00;;;;;;4878514;29;20048;-83
2020/12/19 08:53:27;;;;;;;33.35;21.27;;;5.50;97.90;;;;;;4852172;29;20486;-82
2020/12/19 08:55:54;;;;;;;27.92;16.98;;;5.60;97.90;;;;;;4850908;29;20041;-83
2020/12/19 08:58:24;;;;;;;33.45;19.00;;;5.70;97.90;;;;;;4848129;29;20056;-83
2020/12/19 09:00:53;;;;;;;39.38;21.30;;;5.80;97.90;;;;;;4881040;29;20041;-83
2020/12/19 09:03:30;;;;;;;40.25;24.85;;;5.80;97.90;;;;;;4876500;29;20067;-76
2020/12/19 09:06:16;;;;;;;39.40;24.45;;;5.90;97.90;;;;;;4896059;29;20068;-76
2020/12/19 09:08:47;;;;;;;39.05;23.58;;;6.00;98.00;;;;;;4891622;29;20535;-76
2020/12/19 09:11:28;;;;;;;31.73;19.87;;;6.00;97.90;;;;;;4867527;29;20502;-77
2020/12/19 09:14:05;;;;;;;31.23;20.52;;;6.10;97.90;;;;;;4891897;29;20044;-76
2020/12/19 09:16:33;;;;;;;31.73;20.80;;;6.10;97.90;;;;;;4880526;29;20037;-76
2020/12/19 09:18:59;;;;;;;38.45;23.13;;;6.20;97.90;;;;;;4880781;29;20037;-76
2020/12/19 09:21:26;;;;;;;32.63;20.58;;;6.30;98.00;;;;;;4852032;29;20041;-76
2020/12/19 09:23:53;;;;;;;33.55;21.60;;;6.40;98.00;;;;;;4864965;29;20515;-77
2020/12/19 09:26:19;;;;;;;30.10;19.35;;;6.40;98.00;;;;;;4852507;29;20048;-76
2020/12/19 09:28:46;;;;;;;36.15;21.75;;;6.50;98.00;;;;;;4864779;29;20036;-76
2020/12/19 09:31:12;;;;;;;29.20;20.15;;;6.60;98.10;;;;;;4848391;29;20060;-77
2020/12/19 09:33:39;;;;;;;26.77;18.25;;;6.70;98.10;;;;;;4862958;29;20453;-77
2020/12/19 09:36:05;;;;;;;26.30;16.92;;;6.80;98.10;;;;;;4876517;29;20032;-76
2020/12/19 09:38:31;;;;;;;48.63;30.35;;;6.90;98.10;;;;;;4831991;29;20032;-76
2020/12/19 09:40:58;;;;;;;41.75;26.70;;;7.00;98.20;;;;;;4880459;29;20468;-76
2020/12/19 09:43:24;;;;;;;48.92;27.90;;;7.10;98.10;;;;;;4865637;29;20049;-78
2020/12/19 09:45:51;;;;;;;32.40;20.35;;;7.20;98.20;;;;;;4846768;29;20033;-77
2020/12/19 09:48:17;;;;;;;27.05;18.15;;;7.40;98.30;;;;;;4845912;29;20716;-77
2020/12/19 09:50:44;;;;;;;24.77;17.23;;;7.60;98.50;;;;;;4881359;29;20773;-77
2020/12/19 09:53:10;;;;;;;18.85;14.45;;;7.90;98.70;;;;;;4862582;29;20048;-77
2020/12/19 09:55:37;;;;;;;16.52;11.88;;;8.20;98.90;;;;;;4852835;29;20036;-77
2020/12/19 09:58:04;;;;;;;15.32;10.70;;;8.50;98.90;;;;;;4864455;29;20501;-78
2020/12/19 10:00:30;;;;;;;14.68;10.07;;;8.70;98.90;;;;;;4863205;29;20040;-77
2020/12/19 10:02:57;;;;;;;14.15;10.48;;;9.00;98.90;;;;;;4864352;29;20049;-78
2020/12/19 10:05:24;;;;;;;14.68;11.70;;;9.20;98.80;;;;;;4840864;29;20036;-78
2020/12/19 10:07:50;;;;;;;14.90;10.60;;;9.50;98.70;;;;;;4834504;29;20049;-78
2020/12/19 10:10:17;;;;;;;14.63;10.90;;;9.80;98.60;;;;;;4821869;29;20040;-78
2020/12/19 10:12:43;;;;;;;12.00;9.52;;;10.10;98.40;;;;;;4834260;29;20499;-78
2020/12/19 10:15:11;;;;;;;9.52;7.95;;;10.30;98.20;;;;;;4883494;29;20047;-78
2020/12/19 10:17:38;;;;;;;13.05;8.82;;;10.60;98.00;;;;;;4849879;29;20040;-78
2020/12/19 10:20:06;;;;;;;11.70;8.82;;;10.80;97.70;;;;;;4865370;29;20047;-78
2020/12/19 10:22:32;;;;;;;13.82;9.80;;;11.00;97.30;;;;;;4860489;29;20458;-78
2020/12/19 10:25:00;;;;;;;13.18;9.05;;;11.10;96.80;;;;;;4868208;29;20052;-78
2020/12/19 10:27:27;;;;;;;11.13;9.48;;;11.10;96.30;;;;;;4882446;29;20048;-78
2020/12/19 10:29:53;;;;;;;15.18;10.68;;;11.00;96.20;;;;;;4871088;29;20049;-78
2020/12/19 10:32:20;;;;;;;15.07;11.00;;;10.90;96.10;;;;;;4868348;29;20044;-78
2020/12/19 10:34:47;;;;;;;14.55;11.00;;;10.80;95.40;;;;;;4877981;29;20044;-77
2020/12/19 10:37:14;;;;;;;13.82;11.27;;;10.60;95.40;;;;;;4889937;29;20052;-77
2020/12/19 10:39:40;;;;;;;16.52;10.07;;;10.50;95.70;;;;;;4852064;29;20863;-77
2020/12/19 10:42:06;;;;;;;15.25;11.07;;;10.50;95.50;;;;;;4852569;29;20045;-77
2020/12/19 10:44:33;;;;;;;15.57;11.57;;;10.40;95.50;;;;;;4868053;29;20060;-76
2020/12/19 10:46:59;;;;;;;13.95;10.60;;;10.30;95.40;;;;;;4869225;29;20488;-78
2020/12/19 10:49:26;;;;;;;14.07;10.38;;;10.30;95.10;;;;;;4867793;29;20389;-78
2020/12/19 10:51:53;;;;;;;13.45;10.75;;;10.30;95.10;;;;;;4866737;29;20369;-78
2020/12/19 10:54:20;;;;;;;16.83;12.02;;;10.20;94.90;;;;;;4851308;29;20040;-78
2020/12/19 10:56:46;;;;;;;14.48;11.55;;;10.20;94.70;;;;;;4865827;29;20681;-78
2020/12/19 10:59:13;;;;;;;12.98;10.20;;;10.20;94.60;;;;;;4879020;29;20440;-76
2020/12/19 11:01:40;;;;;;;14.50;11.35;;;10.20;94.60;;;;;;4836672;29;20508;-77
2020/12/19 11:04:06;;;;;;;17.05;11.55;;;10.20;94.40;;;;;;4884742;29;20408;-76
2020/12/19 11:06:33;;;;;;;14.93;10.93;;;10.20;94.30;;;;;;4867612;29;20512;-78
2020/12/19 11:08:59;;;;;;;17.10;11.38;;;10.20;94.60;;;;;;4848085;29;20364;-76
2020/12/19 11:11:26;;;;;;;17.20;10.57;;;10.20;94.20;;;;;;4894838;29;20040;-78
2020/12/19 11:13:52;;;;;;;17.55;10.73;;;10.20;94.10;;;;;;4866788;29;20037;-78
2020/12/19 11:16:27;;;;;;;14.48;11.43;;;10.20;94.00;;;;;;4894946;29;20053;-77
2020/12/19 11:18:55;;;;;;;12.43;9.18;;;10.20;93.90;;;;;;4879896;29;20361;-78
2020/12/19 11:21:21;;;;;;;14.55;10.93;;;10.20;94.00;;;;;;4868999;29;20041;-77
2020/12/19 11:23:48;;;;;;;15.23;9.85;;;10.20;93.90;;;;;;4871922;29;20049;-78
2020/12/19 11:26:20;;;;;;;17.23;10.85;;;10.20;93.90;;;;;;4875233;29;20142;-77
2020/12/19 11:28:53;;;;;;;16.23;10.93;;;10.20;94.00;;;;;;4866811;29;20036;-78
2020/12/19 11:31:27;;;;;;;13.52;10.43;;;10.20;94.00;;;;;;4852770;29;20475;-78
2020/12/19 11:33:55;;;;;;;12.63;10.02;;;10.30;93.90;;;;;;4869179;29;20083;-78
2020/12/19 11:36:22;;;;;;;16.13;10.52;;;10.30;93.90;;;;;;4880120;29;20037;-78
2020/12/19 11:38:49;;;;;;;13.65;10.30;;;10.30;93.90;;;;;;4860473;29;20036;-79
2020/12/19 11:41:26;;;;;;;16.25;10.10;;;10.40;93.90;;;;;;4831649;29;20192;-78
2020/12/19 11:43:53;;;;;;;13.00;9.48;;;10.40;93.80;;;;;;4876665;29;20048;-81
2020/12/19 11:46:20;;;;;;;12.85;9.90;;;10.50;93.90;;;;;;4882176;29;20045;-78
2020/12/19 11:48:46;;;;;;;15.02;9.70;;;10.50;93.70;;;;;;4867418;29;20048;-78
2020/12/19 11:51:13;;;;;;;11.73;9.25;;;10.60;93.60;;;;;;4892254;29;20436;-79
2020/12/19 11:53:39;;;;;;;13.50;9.13;;;10.70;93.70;;;;;;4879830;29;20060;-78
2020/12/19 11:56:06;;;;;;;11.95;8.93;;;10.70;93.70;;;;;;4848928;29;20036;-79
2020/12/19 11:58:33;;;;;;;11.60;8.75;;;10.80;93.70;;;;;;4881466;29;20040;-79
2020/12/19 12:01:00;;;;;;;11.25;8.18;;;10.80;93.70;;;;;;4846427;29;20056;-79
2020/12/19 12:03:26;;;;;;;15.63;10.45;;;10.90;93.70;;;;;;4895964;29;20036;-79
2020/12/19 12:05:53;;;;;;;13.73;9.27;;;10.90;93.40;;;;;;4876293;29;20112;-79
2020/12/19 12:08:20;;;;;;;12.77;8.75;;;10.90;93.30;;;;;;4890791;29;20084;-78
2020/12/19 12:10:46;;;;;;;11.27;8.70;;;11.00;93.40;;;;;;4845457;29;20067;-79
2020/12/19 12:13:13;;;;;;;9.85;8.25;;;11.10;93.30;;;;;;4848188;29;20046;-79
2020/12/19 12:15:39;;;;;;;8.43;6.90;;;11.20;93.20;;;;;;4888561;29;20060;-79
2020/12/19 12:18:06;;;;;;;10.68;7.80;;;11.20;93.00;;;;;;4864133;29;20041;-79
2020/12/19 12:20:32;;;;;;;15.18;8.02;;;11.30;92.90;;;;;;4861515;29;20040;-79
2020/12/19 12:22:58;;;;;;;13.38;7.35;;;11.40;92.60;;;;;;4890101;29;20049;-79
2020/12/19 12:25:25;;;;;;;9.55;6.20;;;11.40;92.40;;;;;;4887869;29;20056;-79
2020/12/19 12:27:51;;;;;;;12.27;6.93;;;11.50;92.40;;;;;;4877285;29;20048;-79
2020/12/19 12:30:18;;;;;;;12.43;7.15;;;11.40;92.50;;;;;;4847643;29;20589;-79
2020/12/19 12:32:45;;;;;;;12.57;7.70;;;11.40;92.30;;;;;;4876425;29;20404;-79
2020/12/19 12:35:12;;;;;;;8.85;6.57;;;11.30;92.20;;;;;;4864452;29;20045;-79
2020/12/19 12:37:38;;;;;;;12.07;7.53;;;11.30;92.30;;;;;;4862017;29;20047;-79
2020/12/19 12:40:05;;;;;;;10.55;7.38;;;11.20;92.30;;;;;;4883882;29;20610;-79
2020/12/19 12:42:32;;;;;;;9.93;6.97;;;11.20;92.30;;;;;;4878883;29;20400;-79